createdAt,value
2022-12-17T00:00:23.205Z,19.67
2022-12-17T00:02:43.359Z,19.90
2022-12-17T00:05:00.604Z,12.75
2022-12-17T00:07:28.036Z,13.10
2022-12-17T00:09:48.602Z,11.77
2022-12-17T00:12:05.816Z,15.15
2022-12-17T00:14:21.795Z,14.65
2022-12-17T00:16:37.804Z,13.20
2022-12-17T00:18:53.254Z,21.33
2022-12-17T00:21:14.241Z,17.55
2022-12-17T00:23:29.931Z,18.40
2022-12-17T00:25:45.803Z,11.80
2022-12-17T00:28:01.331Z,11.95
2022-12-17T00:30:16.909Z,13.93
2022-12-17T00:32:33.592Z,12.00
2022-12-17T00:34:49.045Z,15.15
2022-12-17T00:37:06.502Z,15.40
2022-12-17T00:39:22.614Z,16.23
2022-12-17T00:41:38.354Z,10.82
2022-12-17T00:43:53.821Z,14.80
2022-12-17T00:46:12.455Z,9.68
2022-12-17T00:48:28.008Z,14.50
2022-12-17T00:50:43.351Z,15.18
2022-12-17T00:53:00.620Z,8.30
2022-12-17T00:55:16.317Z,14.35
2022-12-17T00:57:32.202Z,22.08
2022-12-17T00:59:47.606Z,12.85
2022-12-17T01:02:03.231Z,11.38
2022-12-17T01:04:19.010Z,10.93
2022-12-17T01:06:34.950Z,11.52
2022-12-17T01:08:52.036Z,11.57
2022-12-17T01:11:07.689Z,7.60
2022-12-17T01:13:23.120Z,15.02
2022-12-17T01:15:39.695Z,9.65
2022-12-17T01:17:56.233Z,6.70
2022-12-17T01:20:13.352Z,13.55
2022-12-17T01:22:29.356Z,11.32
2022-12-17T01:24:46.230Z,6.55
2022-12-17T01:27:01.809Z,4.30
2022-12-17T01:29:17.956Z,9.05
2022-12-17T01:31:35.406Z,9.95
2022-12-17T01:33:51.593Z,7.47
2022-12-17T01:36:08.479Z,7.43
2022-12-17T01:38:29.890Z,7.22
2022-12-17T01:40:46.954Z,4.57
2022-12-17T01:43:05.492Z,6.35
2022-12-17T01:45:21.928Z,8.95
2022-12-17T01:47:37.646Z,3.85
2022-12-17T01:49:53.284Z,12.20
2022-12-17T01:52:10.739Z,8.88
2022-12-17T01:54:26.224Z,6.68
2022-12-17T01:56:45.694Z,7.53
2022-12-17T01:59:01.969Z,6.30
2022-12-17T02:01:17.550Z,7.93
2022-12-17T02:03:35.064Z,6.78
2022-12-17T02:06:01.456Z,8.70
2022-12-17T02:08:26.651Z,16.38
2022-12-17T02:10:46.566Z,8.02
2022-12-17T02:13:09.525Z,9.13
2022-12-17T02:15:29.926Z,8.02
2022-12-17T02:17:53.344Z,11.23
2022-12-17T02:20:23.491Z,6.57
2022-12-17T02:22:46.355Z,10.68
2022-12-17T02:25:14.562Z,6.45
2022-12-17T02:27:33.660Z,5.53
2022-12-17T02:29:53.781Z,8.50
2022-12-17T02:32:13.399Z,10.73
2022-12-17T02:34:29.751Z,11.10
2022-12-17T02:36:45.631Z,7.28
2022-12-17T02:39:01.165Z,11.13
2022-12-17T02:41:17.555Z,7.57
2022-12-17T02:43:36.015Z,5.78
2022-12-17T02:45:52.634Z,3.78
2022-12-17T02:48:10.613Z,8.75
2022-12-17T02:50:27.736Z,4.50
2022-12-17T02:52:45.273Z,11.25
2022-12-17T02:55:00.683Z,7.25
2022-12-17T02:57:17.332Z,7.10
2022-12-17T02:59:34.760Z,12.00
2022-12-17T03:01:58.092Z,8.05
2022-12-17T03:04:13.917Z,3.90
2022-12-17T03:06:35.301Z,4.68
2022-12-17T03:08:50.948Z,7.20
2022-12-17T03:11:06.708Z,6.50
2022-12-17T03:13:22.176Z,5.60
2022-12-17T03:15:39.090Z,8.38
2022-12-17T03:17:54.889Z,5.75
2022-12-17T03:20:10.256Z,6.00
2022-12-17T03:22:25.936Z,3.50
2022-12-17T03:24:41.379Z,8.55
2022-12-17T03:26:56.911Z,5.38
2022-12-17T03:29:12.469Z,2.78
2022-12-17T03:31:29.811Z,9.80
2022-12-17T03:33:48.567Z,4.40
2022-12-17T03:36:04.298Z,3.85
2022-12-17T03:38:20.022Z,9.23
2022-12-17T03:40:35.838Z,3.85
2022-12-17T03:42:51.173Z,6.38
2022-12-17T03:45:06.618Z,4.65
2022-12-17T03:47:23.586Z,6.97
2022-12-17T03:49:39.548Z,2.42
2022-12-17T03:51:54.897Z,12.60
2022-12-17T03:54:10.334Z,9.23
2022-12-17T03:56:26.574Z,7.10
2022-12-17T03:58:42.556Z,3.97
2022-12-17T04:00:57.776Z,2.88
2022-12-17T04:03:15.198Z,6.57
2022-12-17T04:05:30.927Z,2.67
2022-12-17T04:07:46.708Z,4.63
2022-12-17T04:10:02.341Z,4.13
2022-12-17T04:12:18.790Z,2.65
2022-12-17T04:14:34.029Z,6.20
2022-12-17T04:16:49.708Z,2.70
2022-12-17T04:19:06.759Z,3.65
2022-12-17T04:21:22.687Z,2.00
2022-12-17T04:23:38.801Z,3.28
2022-12-17T04:25:54.781Z,3.65
2022-12-17T04:28:10.339Z,7.53
2022-12-17T04:30:27.361Z,5.82
2022-12-17T04:32:43.313Z,3.05
2022-12-17T04:35:00.576Z,6.65
2022-12-17T04:37:15.909Z,4.15
2022-12-17T04:39:46.068Z,7.60
2022-12-17T04:42:01.594Z,2.80
2022-12-17T04:44:17.427Z,3.45
2022-12-17T04:46:33.205Z,4.47
2022-12-17T04:48:49.059Z,4.93
2022-12-17T04:51:06.471Z,2.25
2022-12-17T04:53:24.157Z,2.00
2022-12-17T04:55:39.571Z,2.38
2022-12-17T04:57:55.234Z,3.00
2022-12-17T05:00:10.695Z,3.90
2022-12-17T05:02:26.341Z,3.20
2022-12-17T05:04:41.801Z,3.33
2022-12-17T05:06:58.852Z,3.30
2022-12-17T05:09:14.690Z,3.80
2022-12-17T05:11:30.323Z,4.68
2022-12-17T05:13:46.285Z,2.85
2022-12-17T05:16:01.776Z,2.92
2022-12-17T05:18:23.678Z,3.15
2022-12-17T05:20:39.116Z,5.10
2022-12-17T05:22:56.400Z,3.72
2022-12-17T05:25:11.974Z,3.22
2022-12-17T05:27:27.937Z,4.85
2022-12-17T05:29:43.599Z,7.90
2022-12-17T05:31:55.605Z,3.45
2022-12-17T05:34:11.386Z,8.38
2022-12-17T05:36:27.361Z,38.50
2022-12-17T05:38:44.391Z,118.50
2022-12-17T05:40:58.926Z,10.43
2022-12-17T05:43:15.768Z,4.88
2022-12-17T05:45:31.639Z,6.10
2022-12-17T05:47:47.104Z,3.45
2022-12-17T05:50:02.784Z,3.45
2022-12-17T05:52:18.408Z,4.18
2022-12-17T05:54:35.636Z,3.92
2022-12-17T05:56:51.339Z,5.63
2022-12-17T05:59:06.812Z,2.80
2022-12-17T06:01:24.409Z,1.67
2022-12-17T06:03:40.550Z,3.83
2022-12-17T06:05:56.750Z,4.93
2022-12-17T06:08:12.356Z,5.43
2022-12-17T06:10:29.599Z,6.35
2022-12-17T06:12:44.805Z,3.80
2022-12-17T06:15:00.676Z,5.70
2022-12-17T06:17:16.042Z,2.97
2022-12-17T06:19:31.622Z,12.52
2022-12-17T06:21:47.138Z,5.00
2022-12-17T06:24:02.509Z,8.55
2022-12-17T06:26:19.434Z,8.00
2022-12-17T06:28:34.925Z,8.75
2022-12-17T06:30:50.380Z,8.95
2022-12-17T06:33:05.988Z,8.27
2022-12-17T06:35:21.561Z,4.45
2022-12-17T06:37:37.037Z,6.07
2022-12-17T06:39:53.011Z,5.07
2022-12-17T06:42:09.978Z,8.98
2022-12-17T06:44:26.021Z,5.07
2022-12-17T06:46:41.676Z,29.17
2022-12-17T06:48:57.320Z,6.97
2022-12-17T06:51:13.236Z,23.25
2022-12-17T06:53:29.877Z,13.00
2022-12-17T06:55:45.242Z,5.22
2022-12-17T06:58:02.141Z,5.55
2022-12-17T07:00:17.748Z,4.95
2022-12-17T07:02:33.564Z,10.75
2022-12-17T07:04:49.715Z,7.22
2022-12-17T07:07:05.267Z,5.53
2022-12-17T07:09:21.053Z,4.25
2022-12-17T07:11:36.641Z,4.05
2022-12-17T07:13:53.810Z,9.48
2022-12-17T07:16:10.578Z,5.00
2022-12-17T07:18:26.811Z,3.63
2022-12-17T07:20:42.240Z,4.28
2022-12-17T07:22:57.712Z,3.20
2022-12-17T07:25:13.271Z,3.65
2022-12-17T07:27:28.778Z,3.65
2022-12-17T07:29:45.739Z,3.20
2022-12-17T07:32:01.821Z,6.53
2022-12-17T07:34:17.343Z,1.75
2022-12-17T07:36:32.727Z,2.75
2022-12-17T07:38:51.829Z,10.18
2022-12-17T07:41:07.674Z,4.63
2022-12-17T07:43:29.189Z,4.88
2022-12-17T07:45:46.436Z,16.33
2022-12-17T07:48:02.085Z,4.57
2022-12-17T07:50:20.020Z,3.78
2022-12-17T07:52:35.599Z,8.25
2022-12-17T07:54:51.312Z,3.40
2022-12-17T07:57:06.861Z,5.10
2022-12-17T07:59:22.697Z,3.47
2022-12-17T08:01:39.773Z,4.35
2022-12-17T08:03:55.746Z,1.73
2022-12-17T08:06:11.635Z,8.50
2022-12-17T08:08:28.194Z,7.40
2022-12-17T08:10:43.691Z,3.75
2022-12-17T08:12:59.015Z,3.67
2022-12-17T08:15:14.332Z,8.57
2022-12-17T08:17:31.240Z,4.50
2022-12-17T08:19:47.311Z,6.30
2022-12-17T08:22:19.113Z,3.80
2022-12-17T08:24:46.068Z,4.35
2022-12-17T08:27:04.647Z,6.05
2022-12-17T08:29:23.950Z,7.10
2022-12-17T08:31:47.516Z,3.22
2022-12-17T08:34:08.074Z,3.50
2022-12-17T08:36:24.347Z,4.05
2022-12-17T08:38:40.041Z,3.22
2022-12-17T08:40:55.603Z,9.82
2022-12-17T08:43:15.786Z,2.17
2022-12-17T08:45:31.236Z,2.67
2022-12-17T08:48:03.677Z,3.95
2022-12-17T08:50:22.076Z,2.83
2022-12-17T08:52:41.341Z,4.03
2022-12-17T08:54:57.140Z,2.20
2022-12-17T08:57:22.623Z,1.57
2022-12-17T08:59:52.468Z,3.55
2022-12-17T09:02:08.332Z,0.45
2022-12-17T09:04:24.686Z,1.02
2022-12-17T09:06:41.719Z,0.15
2022-12-17T09:08:57.513Z,2.28
2022-12-17T09:11:12.657Z,0.57
2022-12-17T09:13:28.426Z,0.17
2022-12-17T09:15:43.992Z,3.35
2022-12-17T09:18:11.029Z,2.23
2022-12-17T09:20:29.770Z,0.27
2022-12-17T09:22:47.227Z,0.67
2022-12-17T09:25:02.913Z,0.63
2022-12-17T09:27:18.914Z,0.13
2022-12-17T09:29:34.841Z,0.73
2022-12-17T09:31:51.019Z,1.42
2022-12-17T09:34:12.024Z,0.08
2022-12-17T09:36:29.262Z,0.28
2022-12-17T09:38:46.199Z,0.68
2022-12-17T09:41:07.529Z,0.10
2022-12-17T09:43:31.695Z,0.77
2022-12-17T09:45:54.859Z,4.03
2022-12-17T09:48:18.004Z,0.10
2022-12-17T09:50:35.124Z,1.13
2022-12-17T09:52:55.590Z,4.30
2022-12-17T09:55:11.688Z,2.25
2022-12-17T09:57:34.196Z,0.50
2022-12-17T09:59:53.507Z,2.38
2022-12-17T10:02:09.682Z,1.10
2022-12-17T10:04:33.096Z,4.32
2022-12-17T10:06:50.110Z,0.32
2022-12-17T10:09:08.803Z,0.00
2022-12-17T10:11:38.066Z,0.70
2022-12-17T10:13:56.720Z,0.25
2022-12-17T10:16:12.683Z,1.55
2022-12-17T10:18:31.571Z,0.35
2022-12-17T10:21:16.572Z,0.28
2022-12-17T10:23:42.328Z,0.47
2022-12-17T10:26:08.845Z,2.08
2022-12-17T10:28:30.334Z,1.13
2022-12-17T10:30:47.267Z,1.00
2022-12-17T10:33:14.550Z,2.58
2022-12-17T10:35:37.641Z,0.43
2022-12-17T10:37:54.366Z,1.30
2022-12-17T10:40:14.502Z,9.13
2022-12-17T10:42:39.043Z,0.70
2022-12-17T10:44:57.047Z,0.50
2022-12-17T10:47:18.490Z,4.50
2022-12-17T10:49:37.418Z,6.95
2022-12-17T10:51:55.045Z,8.15
2022-12-17T10:54:26.591Z,2.88
2022-12-17T10:56:45.511Z,0.20
2022-12-17T10:59:03.970Z,0.55
2022-12-17T11:01:22.753Z,4.25
2022-12-17T11:03:47.420Z,1.20
2022-12-17T11:06:03.543Z,0.05
2022-12-17T11:08:20.706Z,3.05
2022-12-17T11:10:40.698Z,1.05
2022-12-17T11:13:06.089Z,0.68
2022-12-17T11:15:33.744Z,0.10
2022-12-17T11:17:53.085Z,0.10
2022-12-17T11:20:14.031Z,1.05
2022-12-17T11:22:48.375Z,0.10
2022-12-17T11:25:12.307Z,0.35
2022-12-17T11:27:34.738Z,0.20
2022-12-17T11:29:50.577Z,2.67
2022-12-17T11:32:33.285Z,3.38
2022-12-17T11:35:05.246Z,2.33
2022-12-17T11:37:32.187Z,0.40
2022-12-17T11:39:56.519Z,0.20
2022-12-17T11:42:18.486Z,1.95
2022-12-17T11:44:45.675Z,35.03
2022-12-17T11:47:09.530Z,3.97
2022-12-17T11:49:34.475Z,0.82
2022-12-17T11:51:56.472Z,0.63
2022-12-17T11:54:21.181Z,0.28
2022-12-17T11:56:38.850Z,8.57
2022-12-17T11:59:00.249Z,1.88
2022-12-17T12:01:31.954Z,4.63
2022-12-17T12:03:56.237Z,6.55
2022-12-17T12:06:16.211Z,1.48
2022-12-17T12:08:40.212Z,3.17
2022-12-17T12:11:07.635Z,0.32
2022-12-17T12:13:34.504Z,3.60
2022-12-17T12:16:00.601Z,1.98
2022-12-17T12:18:23.373Z,0.63
2022-12-17T12:20:49.887Z,4.45
2022-12-17T12:23:12.666Z,1.30
2022-12-17T12:25:48.022Z,2.38
2022-12-17T12:28:14.546Z,3.03
2022-12-17T12:30:34.924Z,4.20
2022-12-17T12:32:58.085Z,3.38
2022-12-17T12:35:15.603Z,3.33
2022-12-17T12:37:35.702Z,1.85
2022-12-17T12:39:57.696Z,0.70
2022-12-17T12:42:21.171Z,5.80
2022-12-17T12:44:49.457Z,0.93
2022-12-17T12:47:12.245Z,3.72
2022-12-17T12:49:40.462Z,0.82
2022-12-17T12:51:56.570Z,1.35
2022-12-17T12:54:15.848Z,17.13
2022-12-17T12:56:51.279Z,1.48
2022-12-17T12:59:08.719Z,1.98
2022-12-17T13:01:24.404Z,3.42
2022-12-17T13:03:45.617Z,3.08
2022-12-17T13:05:44.882Z,1.30
2022-12-17T13:07:43.194Z,1.55
2022-12-17T13:09:50.365Z,2.75
2022-12-17T13:11:50.983Z,0.93
2022-12-17T13:13:56.921Z,2.78
2022-12-17T13:15:57.418Z,3.08
2022-12-17T13:18:05.407Z,1.95
2022-12-17T13:20:20.762Z,2.10
2022-12-17T13:22:31.800Z,3.13
2022-12-17T13:24:29.999Z,1.58
2022-12-17T13:26:43.395Z,2.63
2022-12-17T13:28:42.213Z,4.25
2022-12-17T13:30:41.859Z,4.03
2022-12-17T13:32:44.800Z,5.25
2022-12-17T13:35:10.126Z,4.32
2022-12-17T13:37:14.136Z,4.63
2022-12-17T13:39:31.805Z,2.22
2022-12-17T13:41:32.599Z,2.88
2022-12-17T13:43:34.440Z,5.00
2022-12-17T13:45:38.341Z,9.30
2022-12-17T13:47:38.658Z,6.07
2022-12-17T13:49:36.876Z,13.15
2022-12-17T13:51:36.397Z,10.40
2022-12-17T13:53:35.074Z,5.45
2022-12-17T13:55:33.125Z,3.28
2022-12-17T13:57:31.797Z,1.45
2022-12-17T13:59:30.184Z,3.45
2022-12-17T14:01:28.398Z,3.00
2022-12-17T14:03:56.537Z,3.33
2022-12-17T14:05:46.441Z,7.20
2022-12-17T14:07:45.022Z,3.08
2022-12-17T14:09:45.555Z,2.22
2022-12-17T14:12:01.488Z,2.17
2022-12-17T14:14:00.310Z,2.63
2022-12-17T14:15:58.555Z,2.33
2022-12-17T14:17:58.985Z,6.10
2022-12-17T14:20:06.486Z,2.67
2022-12-17T14:22:04.960Z,2.78
2022-12-17T14:24:03.545Z,4.93
2022-12-17T14:26:02.245Z,3.08
2022-12-17T14:28:02.047Z,3.33
2022-12-17T14:30:00.337Z,3.17
2022-12-17T14:32:00.715Z,2.00
2022-12-17T14:34:07.742Z,5.03
2022-12-17T14:36:11.610Z,2.38
2022-12-17T14:38:37.532Z,5.88
2022-12-17T14:40:36.584Z,5.85
2022-12-17T14:42:36.793Z,5.20
2022-12-17T14:44:35.667Z,6.75
2022-12-17T14:46:35.873Z,10.77
2022-12-17T14:48:48.007Z,8.95
2022-12-17T14:51:00.714Z,12.25
2022-12-17T14:53:02.644Z,7.13
2022-12-17T14:55:19.155Z,6.70
2022-12-17T14:57:22.746Z,5.43
2022-12-17T14:59:32.119Z,5.63
2022-12-17T15:01:31.192Z,7.05
2022-12-17T15:03:35.160Z,12.50
2022-12-17T15:05:33.598Z,7.97
2022-12-17T15:07:33.248Z,7.18
2022-12-17T15:09:36.931Z,4.50
2022-12-17T15:11:35.372Z,17.33
2022-12-17T15:13:33.598Z,17.15
2022-12-17T15:15:32.038Z,5.32
2022-12-17T15:17:30.204Z,6.57
2022-12-17T15:19:28.526Z,5.68
2022-12-17T15:21:27.481Z,10.40
2022-12-17T15:23:26.224Z,8.77
2022-12-17T15:25:25.847Z,9.65
2022-12-17T15:27:24.021Z,10.82
2022-12-17T15:29:22.123Z,7.00
2022-12-17T15:31:24.834Z,20.05
2022-12-17T15:33:24.253Z,8.48
2022-12-17T15:35:22.580Z,7.43
2022-12-17T15:37:25.436Z,6.72
2022-12-17T15:39:24.023Z,7.75
2022-12-17T15:41:41.372Z,8.73
2022-12-17T15:43:39.548Z,8.75
2022-12-17T15:45:38.123Z,9.18
2022-12-17T15:47:36.345Z,14.32
2022-12-17T15:49:34.730Z,13.40
2022-12-17T15:51:33.109Z,9.05
2022-12-17T15:53:31.628Z,10.77
2022-12-17T15:55:30.431Z,16.20
2022-12-17T15:57:30.263Z,11.80
2022-12-17T15:59:28.693Z,11.82
2022-12-17T16:01:27.149Z,11.82
2022-12-17T16:03:25.502Z,11.55
2022-12-17T16:05:24.362Z,17.02
2022-12-17T16:07:22.505Z,13.57
2022-12-17T16:09:24.419Z,15.75
2022-12-17T16:11:23.616Z,16.63
2022-12-17T16:13:23.260Z,19.08
2022-12-17T16:15:21.537Z,28.95
2022-12-17T16:17:19.667Z,28.08
2022-12-17T16:19:18.105Z,23.00
2022-12-17T16:21:16.615Z,15.02
2022-12-17T16:23:14.819Z,16.52
2022-12-17T16:25:13.151Z,21.20
2022-12-17T16:27:11.416Z,19.45
2022-12-17T16:29:11.110Z,20.95
2022-12-17T16:31:11.854Z,16.65
2022-12-17T16:33:10.365Z,23.83
2022-12-17T16:35:09.092Z,32.92
2022-12-17T16:37:07.384Z,28.42
2022-12-17T16:39:06.385Z,28.05
2022-12-17T16:41:05.392Z,33.20
2022-12-17T16:43:03.718Z,24.85
2022-12-17T16:45:03.198Z,25.23
2022-12-17T16:47:01.550Z,25.23
2022-12-17T16:49:03.840Z,28.75
2022-12-17T16:51:02.436Z,25.52
2022-12-17T16:53:00.782Z,30.05
2022-12-17T16:54:59.720Z,22.70
2022-12-17T16:56:58.030Z,20.98
2022-12-17T16:58:57.066Z,22.95
2022-12-17T17:00:56.597Z,20.98
2022-12-17T17:02:54.974Z,23.35
2022-12-17T17:04:53.498Z,21.77
2022-12-17T17:06:54.362Z,29.58
2022-12-17T17:08:53.045Z,34.10
2022-12-17T17:10:51.213Z,31.90
2022-12-17T17:12:49.606Z,34.08
2022-12-17T17:14:47.924Z,31.58
2022-12-17T17:16:48.918Z,28.80
2022-12-17T17:18:47.323Z,30.95
2022-12-17T17:20:45.576Z,29.85
2022-12-17T17:22:44.011Z,24.00
2022-12-17T17:24:42.282Z,21.10
2022-12-17T17:26:41.034Z,30.77
2022-12-17T17:28:40.067Z,31.70
2022-12-17T17:30:38.506Z,27.73
2022-12-17T17:32:38.314Z,28.15
2022-12-17T17:34:39.916Z,23.15
2022-12-17T17:36:39.113Z,32.42
2022-12-17T17:38:39.716Z,25.95
2022-12-17T17:40:38.700Z,21.15
2022-12-17T17:42:36.982Z,34.40
2022-12-17T17:44:35.706Z,29.85
2022-12-17T17:46:34.796Z,31.35
2022-12-17T17:48:35.589Z,31.90
2022-12-17T17:50:34.097Z,19.63
2022-12-17T17:52:32.443Z,25.25
2022-12-17T17:54:30.842Z,25.70
2022-12-17T17:56:31.418Z,20.58
2022-12-17T17:58:29.766Z,20.80
2022-12-17T18:00:28.077Z,37.97
2022-12-17T18:02:26.560Z,31.88
2022-12-17T18:04:26.406Z,36.30
2022-12-17T18:06:25.528Z,33.92
2022-12-17T18:08:23.914Z,33.35
2022-12-17T18:10:24.406Z,41.95
2022-12-17T18:12:45.478Z,40.33
2022-12-17T18:15:12.004Z,33.70
2022-12-17T18:17:02.005Z,38.08
2022-12-17T18:19:02.564Z,34.38
2022-12-17T18:21:07.355Z,34.25
2022-12-17T18:23:05.857Z,23.88
2022-12-17T18:25:04.366Z,24.65
2022-12-17T18:27:02.668Z,22.42
2022-12-17T18:29:03.184Z,33.17
2022-12-17T18:31:08.279Z,19.17
2022-12-17T18:33:06.432Z,14.27
2022-12-17T18:35:04.986Z,18.67
2022-12-17T18:37:05.352Z,13.27
2022-12-17T18:39:07.094Z,15.32
2022-12-17T18:41:30.701Z,18.75
2022-12-17T18:43:28.216Z,14.63
2022-12-17T18:45:26.492Z,14.00
2022-12-17T18:47:25.659Z,13.48
2022-12-17T18:49:26.713Z,8.75
2022-12-17T18:51:24.990Z,10.30
2022-12-17T18:53:26.121Z,11.98
2022-12-17T18:55:24.395Z,4.45
2022-12-17T18:57:25.540Z,8.57
2022-12-17T18:59:28.879Z,8.45
2022-12-17T19:01:29.452Z,6.75
2022-12-17T19:03:27.731Z,6.35
2022-12-17T19:05:25.903Z,9.13
2022-12-17T19:07:24.247Z,6.47
2022-12-17T19:09:26.638Z,4.30
2022-12-17T19:11:25.147Z,5.97
2022-12-17T19:13:23.438Z,7.60
2022-12-17T19:15:21.823Z,5.47
2022-12-17T19:17:20.216Z,2.88
2022-12-17T19:19:19.397Z,26.83
2022-12-17T19:21:17.730Z,34.65
2022-12-17T19:23:16.299Z,37.47
2022-12-17T19:25:15.990Z,11.55
2022-12-17T19:27:14.218Z,6.28
2022-12-17T19:29:13.862Z,6.50
2022-12-17T19:31:12.835Z,7.28
2022-12-17T19:33:11.130Z,5.57
2022-12-17T19:35:10.307Z,4.72
2022-12-17T19:37:09.286Z,8.40
2022-12-17T19:39:09.600Z,9.27
2022-12-17T19:41:10.853Z,4.53
2022-12-17T19:43:09.043Z,6.78
2022-12-17T19:45:09.522Z,8.77
2022-12-17T19:47:07.878Z,51.50
2022-12-17T19:49:07.671Z,7.38
2022-12-17T19:51:08.486Z,6.97
2022-12-17T19:53:06.681Z,5.68
2022-12-17T19:55:08.187Z,8.43
2022-12-17T19:57:07.853Z,8.40
2022-12-17T19:59:08.371Z,5.35
2022-12-17T20:01:07.946Z,4.57
2022-12-17T20:03:06.231Z,6.13
2022-12-17T20:05:04.996Z,11.13
2022-12-17T20:07:03.573Z,4.03
2022-12-17T20:09:03.324Z,5.28
2022-12-17T20:11:03.156Z,4.20
2022-12-17T20:13:02.814Z,7.28
2022-12-17T20:15:01.104Z,5.78
2022-12-17T20:17:01.274Z,7.90
2022-12-17T20:18:59.930Z,6.00
2022-12-17T20:21:03.477Z,32.75
2022-12-17T20:23:01.749Z,53.80
2022-12-17T20:25:01.622Z,8.30
2022-12-17T20:27:01.158Z,7.28
2022-12-17T20:29:00.792Z,8.07
2022-12-17T20:30:59.366Z,7.07
2022-12-17T20:32:57.532Z,9.75
2022-12-17T20:34:55.698Z,6.20
2022-12-17T20:36:54.625Z,8.02
2022-12-17T20:38:53.161Z,10.23
2022-12-17T20:40:51.436Z,9.93
2022-12-17T20:42:49.602Z,40.20
2022-12-17T20:44:53.412Z,7.03
2022-12-17T20:46:51.891Z,13.57
2022-12-17T20:48:50.600Z,7.65
2022-12-17T20:50:49.275Z,10.88
2022-12-17T20:52:47.473Z,14.93
2022-12-17T20:54:45.570Z,11.18
2022-12-17T20:56:43.867Z,10.13
2022-12-17T20:58:43.020Z,9.88
2022-12-17T21:00:42.876Z,12.75
2022-12-17T21:02:41.166Z,7.15
2022-12-17T21:04:39.614Z,6.03
2022-12-17T21:06:40.494Z,4.30
2022-12-17T21:08:44.789Z,6.20
2022-12-17T21:10:46.074Z,7.10
2022-12-17T21:13:01.797Z,4.95
2022-12-17T21:15:00.125Z,5.13
2022-12-17T21:16:59.735Z,6.65
2022-12-17T21:18:59.307Z,5.13
2022-12-17T21:20:59.326Z,3.42
2022-12-17T21:22:57.606Z,5.25
2022-12-17T21:24:55.703Z,4.50
2022-12-17T21:26:53.941Z,4.45
2022-12-17T21:28:54.416Z,6.32
2022-12-17T21:30:52.947Z,6.18
2022-12-17T21:32:52.545Z,4.70
2022-12-17T21:34:50.775Z,4.93
2022-12-17T21:36:49.088Z,5.50
2022-12-17T21:38:48.190Z,3.97
2022-12-17T21:40:46.399Z,8.38
2022-12-17T21:43:02.819Z,4.15
2022-12-17T21:45:00.941Z,3.65
2022-12-17T21:46:59.855Z,5.57
2022-12-17T21:49:00.894Z,5.63
2022-12-17T21:50:59.139Z,1.92
2022-12-17T21:52:57.717Z,5.40
2022-12-17T21:54:55.831Z,5.47
2022-12-17T21:56:54.174Z,2.05
2022-12-17T21:58:57.733Z,2.65
2022-12-17T22:00:55.984Z,5.22
2022-12-17T22:02:54.536Z,3.17
2022-12-17T22:04:54.227Z,4.63
2022-12-17T22:06:59.034Z,4.40
2022-12-17T22:09:02.927Z,8.02
2022-12-17T22:11:09.952Z,2.42
2022-12-17T22:13:26.640Z,33.97
2022-12-17T22:15:26.353Z,5.75
2022-12-17T22:17:28.694Z,2.22
2022-12-17T22:19:26.962Z,1.67
2022-12-17T22:21:26.753Z,1.95
2022-12-17T22:23:25.065Z,1.75
2022-12-17T22:25:23.672Z,1.42
2022-12-17T22:27:22.062Z,1.50
2022-12-17T22:29:34.225Z,2.63
2022-12-17T22:31:50.299Z,1.15
2022-12-17T22:34:17.437Z,0.63
2022-12-17T22:37:52.232Z,5.15
2022-12-17T22:40:00.396Z,1.35
2022-12-17T22:44:30.219Z,2.25
2022-12-17T22:44:42.955Z,1.48
2022-12-17T22:45:43.906Z,1.90
2022-12-17T22:47:42.117Z,0.50
2022-12-17T22:49:40.354Z,0.82
2022-12-17T22:51:42.088Z,1.77
2022-12-17T22:53:43.334Z,1.52
2022-12-17T22:55:41.844Z,1.13
2022-12-17T22:57:40.397Z,1.17
2022-12-17T22:59:38.951Z,0.65
2022-12-17T23:01:38.388Z,1.75
2022-12-17T23:03:37.507Z,1.20
2022-12-17T23:05:36.248Z,4.20
2022-12-17T23:07:34.503Z,1.02
2022-12-17T23:09:34.029Z,0.40
2022-12-17T23:11:32.240Z,1.67
2022-12-17T23:13:31.997Z,1.27
2022-12-17T23:15:34.178Z,0.65
2022-12-17T23:17:35.252Z,0.95
2022-12-17T23:19:34.047Z,0.75
2022-12-17T23:21:32.419Z,1.67
2022-12-17T23:23:30.585Z,1.05
2022-12-17T23:25:30.767Z,1.50
2022-12-17T23:27:28.936Z,2.53
2022-12-17T23:29:27.415Z,0.70
2022-12-17T23:31:27.881Z,1.25
2022-12-17T23:33:26.057Z,0.47
2022-12-17T23:35:24.414Z,1.08
2022-12-17T23:37:22.539Z,2.88
2022-12-17T23:39:20.908Z,1.25
2022-12-17T23:41:22.591Z,0.98
2022-12-17T23:43:20.838Z,2.55
2022-12-17T23:45:19.043Z,4.10
2022-12-17T23:47:17.245Z,3.00
2022-12-17T23:49:16.772Z,2.80
2022-12-17T23:51:16.410Z,2.17
2022-12-17T23:53:14.653Z,1.02
2022-12-17T23:55:12.730Z,1.08
2022-12-17T23:57:12.463Z,1.45
2022-12-17T23:59:10.786Z,2.03
